Time;durP1;ratioP1;P1;durP2;ratioP2;P2;SDS_P1;SDS_P2;PMS_P1;PMS_P2;Temp;Humidity;BMP_temperature;BMP_pressure;BME280_temperature;BME280_humidity;BME280_pressure;Samples;Min_cycle;Max_cycle;Signal;HPM_P1;HPM_P2
2024/04/12 00:00:56;;;;;;;;;;;18.90;68.40;;;;;;5394158;26;1450;-73
2024/04/12 00:03:22;;;;;;;;;;;18.90;68.30;;;;;;5407785;26;1568;-73
2024/04/12 00:05:47;;;;;;;;;;;18.90;69.10;;;;;;5392552;26;1473;-73
2024/04/12 00:08:14;;;;;;;;;;;18.90;68.40;;;;;;5402457;26;1434;-73
2024/04/12 00:10:40;;;;;;;;;;;18.90;68.40;;;;;;5364100;26;1413;-73
2024/04/12 00:13:07;;;;;;;;;;;18.90;68.40;;;;;;5392847;26;1486;-73
2024/04/12 00:15:33;;;;;;;;;;;18.90;68.40;;;;;;5388761;26;1270;-73
2024/04/12 00:17:59;;;;;;;;;;;18.90;68.40;;;;;;5407997;26;1473;-73
2024/04/12 00:20:28;;;;;;;;;;;18.90;68.40;;;;;;5391884;26;1883;-73
2024/04/12 00:22:55;;;;;;;;;;;18.90;68.40;;;;;;5389643;26;1856;-73
2024/04/12 00:25:23;;;;;;;;;;;18.90;68.40;;;;;;5402593;26;1866;-73
2024/04/12 00:27:49;;;;;;;;;;;18.90;68.40;;;;;;5397351;26;2024;-74
2024/04/12 00:30:37;;;;;;;;;;;18.90;68.40;;;;;;5401344;26;1496;-73
2024/04/12 00:33:01;;;;;;;;;;;18.90;68.40;;;;;;5395625;26;1408;-74
2024/04/12 00:35:34;;;;;;;;;;;18.90;68.40;;;;;;5397924;26;1821;-73
2024/04/12 00:38:03;;;;;;;;;;;18.90;68.40;;;;;;5399398;26;1717;-73
2024/04/12 00:40:32;;;;;;;;;;;18.90;68.40;;;;;;5402512;26;1841;-73
2024/04/12 00:43:11;;;;;;;;;;;18.90;68.40;;;;;;5396988;26;1752;-73
2024/04/12 00:45:48;;;;;;;;;;;18.90;68.40;;;;;;5397545;26;1402;-73
2024/04/12 00:48:15;;;;;;;;;;;18.90;68.40;;;;;;5401061;26;1792;-73
2024/04/12 00:50:43;;;;;;;;;;;18.90;68.40;;;;;;5393924;26;1767;-73
2024/04/12 00:53:09;;;;;;;;;;;18.90;68.40;;;;;;5402376;26;1867;-72
2024/04/12 00:55:39;;;;;;;;;;;18.90;68.40;;;;;;5395545;26;1714;-72
2024/04/12 00:58:10;;;;;;;;;;;18.90;68.40;;;;;;5391762;26;1681;-72
2024/04/12 01:00:36;;;;;;;;;;;18.90;68.40;;;;;;5394922;26;1877;-72
2024/04/12 01:03:08;;;;;;;;;;;18.90;68.40;;;;;;5400161;26;1813;-71
2024/04/12 01:05:36;;;;;;;;;;;18.90;69.20;;;;;;5404155;26;1894;-71
2024/04/12 01:08:01;;;;;;;;;;;18.90;68.40;;;;;;5376642;26;1914;-70
2024/04/12 01:10:30;;;;;;;;;;;18.90;68.40;;;;;;5398317;26;1896;-69
2024/04/12 01:12:56;;;;;;;;;;;18.90;68.40;;;;;;5397838;26;1835;-72
2024/04/12 01:15:31;;;;;;;;;;;18.90;69.10;;;;;;5399025;26;1938;-72
2024/04/12 01:17:57;;;;;;;;;;;18.90;68.40;;;;;;5399390;26;1573;-70
2024/04/12 01:20:25;;;;;;;;;;;18.90;68.40;;;;;;5402079;26;1869;-70
2024/04/12 01:22:53;;;;;;;;;;;18.90;68.40;;;;;;5397649;26;1868;-71
2024/04/12 01:25:19;;;;;;;;;;;18.90;68.40;;;;;;5401369;26;1897;-72
2024/04/12 01:27:44;;;;;;;;;;;18.90;68.40;;;;;;5397332;26;1697;-72
2024/04/12 01:30:11;;;;;;;;;;;18.90;69.10;;;;;;5392255;26;1780;-71
2024/04/12 01:32:36;;;;;;;;;;;18.90;68.40;;;;;;5396773;26;1952;-71
2024/04/12 01:35:03;;;;;;;;;;;18.90;68.40;;;;;;5395312;26;1749;-71
2024/04/12 01:37:30;;;;;;;;;;;18.90;68.40;;;;;;5400154;26;1824;-72
2024/04/12 01:40:01;;;;;;;;;;;18.90;68.40;;;;;;5393594;26;1887;-70
2024/04/12 01:42:27;;;;;;;;;;;18.90;68.40;;;;;;5401336;26;1895;-72
2024/04/12 01:47:48;;;;;;;;;;;18.90;68.40;;;;;;5398926;26;1630;-71
2024/04/12 01:50:22;;;;;;;;;;;18.90;68.40;;;;;;5399629;26;1885;-71
2024/04/12 01:52:52;;;;;;;;;;;18.90;68.40;;;;;;5395260;26;1303;-72
2024/04/12 01:55:18;;;;;;;;;;;18.90;68.40;;;;;;5401676;26;1929;-74
2024/04/12 01:57:46;;;;;;;;;;;18.90;68.40;;;;;;5395860;26;1565;-75
2024/04/12 02:00:16;;;;;;;;;;;18.90;68.40;;;;;;5400657;26;1848;-76
2024/04/12 02:02:46;;;;;;;;;;;18.90;68.40;;;;;;5400870;26;901;-76
2024/04/12 02:05:12;;;;;;;;;;;18.90;68.40;;;;;;5379855;26;1958;-76
2024/04/12 02:07:40;;;;;;;;;;;18.90;68.40;;;;;;5401275;26;1900;-76
2024/04/12 02:10:11;;;;;;;;;;;18.90;68.40;;;;;;5404107;26;1858;-76
2024/04/12 02:12:38;;;;;;;;;;;18.90;68.40;;;;;;5399297;26;1961;-75
2024/04/12 02:15:19;;;;;;;;;;;18.90;68.40;;;;;;5401847;26;1978;-76
2024/04/12 02:17:53;;;;;;;;;;;18.90;68.40;;;;;;5389315;26;1846;-76
2024/04/12 02:20:20;;;;;;;;;;;18.90;68.40;;;;;;5408177;26;1944;-76
2024/04/12 02:22:46;;;;;;;;;;;18.90;68.40;;;;;;5399317;26;1846;-76
2024/04/12 02:25:13;;;;;;;;;;;18.90;68.40;;;;;;5397544;26;1929;-76
2024/04/12 02:27:38;;;;;;;;;;;18.90;68.40;;;;;;5399123;26;1871;-76
2024/04/12 02:30:06;;;;;;;;;;;18.90;68.40;;;;;;5411343;26;1910;-74
2024/04/12 02:32:31;;;;;;;;;;;18.90;68.40;;;;;;5394214;26;1449;-72
2024/04/12 02:34:57;;;;;;;;;;;18.90;68.40;;;;;;5400208;26;1491;-72
2024/04/12 02:37:22;;;;;;;;;;;18.90;68.40;;;;;;5401762;26;1533;-72
2024/04/12 02:39:48;;;;;;;;;;;18.90;68.40;;;;;;5396059;26;1832;-71
2024/04/12 02:42:18;;;;;;;;;;;18.90;68.40;;;;;;5396943;26;1433;-73
2024/04/12 02:44:45;;;;;;;;;;;18.90;68.40;;;;;;5393653;26;1365;-73
2024/04/12 02:47:14;;;;;;;;;;;18.90;68.40;;;;;;5391870;26;1628;-73
2024/04/12 02:49:40;;;;;;;;;;;18.90;68.40;;;;;;5396679;26;1921;-73
2024/04/12 02:52:07;;;;;;;;;;;18.90;68.40;;;;;;5396358;26;1861;-70
2024/04/12 02:54:35;;;;;;;;;;;18.90;68.40;;;;;;5395825;26;1901;-71
2024/04/12 02:57:02;;;;;;;;;;;18.90;68.40;;;;;;5396589;26;1786;-70
2024/04/12 02:59:28;;;;;;;;;;;18.90;68.40;;;;;;5398302;26;1853;-71
2024/04/12 03:01:54;;;;;;;;;;;18.90;68.40;;;;;;5392687;26;1414;-70
2024/04/12 03:04:19;;;;;;;;;;;18.90;68.40;;;;;;5407913;26;1889;-71
2024/04/12 03:06:45;;;;;;;;;;;18.90;68.40;;;;;;5390011;26;1961;-70
2024/04/12 03:09:11;;;;;;;;;;;18.90;68.40;;;;;;5396840;26;1857;-70
2024/04/12 03:11:37;;;;;;;;;;;18.90;68.40;;;;;;5395835;26;1394;-70
2024/04/12 03:14:08;;;;;;;;;;;18.90;68.40;;;;;;5396873;26;1914;-71
2024/04/12 03:16:37;;;;;;;;;;;18.90;68.40;;;;;;5397768;26;1831;-74
2024/04/12 03:19:10;;;;;;;;;;;18.90;68.40;;;;;;5399250;26;1829;-74
2024/04/12 03:21:36;;;;;;;;;;;18.90;68.40;;;;;;5396634;26;1939;-74
2024/04/12 03:24:02;;;;;;;;;;;18.90;68.40;;;;;;5395660;26;2006;-74
2024/04/12 03:26:27;;;;;;;;;;;18.90;68.40;;;;;;5397493;26;2008;-74
2024/04/12 03:28:58;;;;;;;;;;;18.90;68.40;;;;;;5401226;26;1978;-74
2024/04/12 03:31:26;;;;;;;;;;;18.90;68.40;;;;;;5395230;26;2132;-74
2024/04/12 03:33:55;;;;;;;;;;;18.90;68.40;;;;;;5397121;26;1931;-74
2024/04/12 03:36:28;;;;;;;;;;;18.90;68.40;;;;;;5403064;26;1941;-74
2024/04/12 03:39:24;;;;;;;;;;;18.90;68.40;;;;;;5396863;26;1837;-74
2024/04/12 03:41:43;;;;;;;;;;;18.90;68.50;;;;;;5400349;26;1536;-74
2024/04/12 03:44:09;;;;;;;;;;;18.90;68.40;;;;;;5398431;26;1489;-74
2024/04/12 03:46:35;;;;;;;;;;;18.90;68.40;;;;;;5398606;26;1512;-74
2024/04/12 03:49:13;;;;;;;;;;;18.90;68.40;;;;;;5396011;26;1628;-74
2024/04/12 03:51:44;;;;;;;;;;;18.90;68.40;;;;;;5398620;26;1919;-73
2024/04/12 03:54:17;;;;;;;;;;;18.90;68.40;;;;;;5397754;26;1834;-73
2024/04/12 03:56:43;;;;;;;;;;;18.90;68.40;;;;;;5398657;26;1539;-72
2024/04/12 03:59:09;;;;;;;;;;;18.90;68.50;;;;;;5398354;26;1853;-73
2024/04/12 04:01:36;;;;;;;;;;;18.90;68.40;;;;;;5394384;26;1377;-72
2024/04/12 04:04:10;;;;;;;;;;;18.90;68.40;;;;;;5404858;26;1703;-73
2024/04/12 04:06:38;;;;;;;;;;;18.90;68.40;;;;;;5397882;26;1855;-72
2024/04/12 04:09:06;;;;;;;;;;;18.90;68.50;;;;;;5393214;26;1851;-73
2024/04/12 04:11:32;;;;;;;;;;;18.90;68.50;;;;;;5393478;26;2065;-73
2024/04/12 04:13:57;;;;;;;;;;;18.90;68.40;;;;;;5389816;26;1882;-73
2024/04/12 04:16:35;;;;;;;;;;;18.90;68.40;;;;;;5390592;26;1747;-73
2024/04/12 04:19:12;;;;;;;;;;;18.90;68.40;;;;;;5419356;26;1921;-74
2024/04/12 04:21:41;;;;;;;;;;;18.90;68.30;;;;;;5396698;26;1772;-74
2024/04/12 04:24:10;;;;;;;;;;;18.90;68.30;;;;;;5422626;26;1315;-75
2024/04/12 04:26:36;;;;;;;;;;;18.90;68.20;;;;;;5364341;26;1258;-75
2024/04/12 04:29:02;;;;;;;;;;;19.00;68.20;;;;;;5394215;26;1282;-73
2024/04/12 04:31:33;;;;;;;;;;;19.00;68.00;;;;;;5389571;26;1355;-73
2024/04/12 04:33:58;;;;;;;;;;;19.00;68.00;;;;;;5399862;26;1781;-73
2024/04/12 04:36:24;;;;;;;;;;;19.00;68.00;;;;;;5392377;26;1915;-73
2024/04/12 04:38:50;;;;;;;;;;;19.00;67.90;;;;;;5394794;26;1849;-73
2024/04/12 04:41:19;;;;;;;;;;;19.00;67.90;;;;;;5396346;26;1762;-74
2024/04/12 04:43:46;;;;;;;;;;;19.10;67.90;;;;;;5393643;26;1871;-73
2024/04/12 04:46:27;;;;;;;;;;;19.10;67.80;;;;;;5394270;26;1903;-73
2024/04/12 04:48:55;;;;;;;;;;;19.10;67.80;;;;;;5393165;26;1636;-72
2024/04/12 04:51:22;;;;;;;;;;;19.10;67.70;;;;;;5390464;26;1755;-71
2024/04/12 04:53:52;;;;;;;;;;;19.10;67.70;;;;;;5392995;26;2033;-72
2024/04/12 04:56:24;;;;;;;;;;;19.10;67.60;;;;;;5395857;26;1800;-71
2024/04/12 04:58:53;;;;;;;;;;;19.10;67.60;;;;;;5397925;26;1920;-72
2024/04/12 05:01:18;;;;;;;;;;;19.10;67.60;;;;;;5400387;26;1303;-73
2024/04/12 05:03:49;;;;;;;;;;;19.20;67.60;;;;;;5364194;26;1958;-73
2024/04/12 05:06:27;;;;;;;;;;;19.20;67.50;;;;;;5400820;26;1350;-73
2024/04/12 05:08:56;;;;;;;;;;;19.20;67.50;;;;;;5406281;26;1865;-73
2024/04/12 05:11:29;;;;;;;;;;;19.20;67.50;;;;;;5398917;26;1914;-73
2024/04/12 05:13:55;;;;;;;;;;;19.20;67.40;;;;;;5394242;26;1569;-72
2024/04/12 05:16:22;;;;;;;;;;;19.20;67.40;;;;;;5397309;26;1912;-73
2024/04/12 05:18:53;;;;;;;;;;;19.20;67.40;;;;;;5396910;26;1880;-72
2024/04/12 05:21:20;;;;;;;;;;;19.20;67.30;;;;;;5390206;26;1554;-71
2024/04/12 05:23:47;;;;;;;;;;;19.20;67.20;;;;;;5389814;26;1477;-71
2024/04/12 05:26:13;;;;;;;;;;;19.20;67.20;;;;;;5387624;26;1523;-71
2024/04/12 05:28:38;;;;;;;;;;;19.20;67.20;;;;;;5406616;26;1596;-72
2024/04/12 05:31:11;;;;;;;;;;;19.20;67.20;;;;;;5389959;26;1521;-73
2024/04/12 05:33:38;;;;;;;;;;;19.20;67.10;;;;;;5389649;26;1431;-72
2024/04/12 05:36:09;;;;;;;;;;;19.20;67.10;;;;;;5378388;26;1415;-72
2024/04/12 05:38:35;;;;;;;;;;;19.30;67.20;;;;;;5396133;26;1870;-72
2024/04/12 05:41:04;;;;;;;;;;;19.20;67.10;;;;;;5393477;26;1796;-72
2024/04/12 05:43:30;;;;;;;;;;;19.30;67.10;;;;;;5400750;26;1924;-72
2024/04/12 05:45:55;;;;;;;;;;;19.30;67.10;;;;;;5395677;26;1774;-72
2024/04/12 05:48:21;;;;;;;;;;;19.30;67.10;;;;;;5399156;26;1489;-72
2024/04/12 05:50:48;;;;;;;;;;;19.30;67.10;;;;;;5370933;26;1897;-72
2024/04/12 05:53:17;;;;;;;;;;;19.30;67.10;;;;;;5394664;26;1894;-73
2024/04/12 05:55:45;;;;;;;;;;;19.30;67.10;;;;;;5392598;26;1389;-71
2024/04/12 05:58:14;;;;;;;;;;;19.30;67.10;;;;;;5394246;26;1698;-71
2024/04/12 06:00:42;;;;;;;;;;;19.30;67.10;;;;;;5397206;26;1861;-72
2024/04/12 06:03:13;;;;;;;;;;;19.30;67.10;;;;;;5390890;26;1745;-73
2024/04/12 06:05:40;;;;;;;;;;;19.30;67.10;;;;;;5390436;26;1753;-73
2024/04/12 06:08:05;;;;;;;;;;;19.30;67.10;;;;;;5392006;26;1604;-73
2024/04/12 06:10:32;;;;;;;;;;;19.20;67.10;;;;;;5370143;26;1836;-73
2024/04/12 06:13:05;;;;;;;;;;;19.20;67.10;;;;;;5392410;26;1777;-72
2024/04/12 06:15:37;;;;;;;;;;;19.20;67.10;;;;;;5399085;26;1882;-72
2024/04/12 06:18:05;;;;;;;;;;;19.20;67.10;;;;;;5398184;26;1665;-72
2024/04/12 06:20:31;;;;;;;;;;;19.20;67.20;;;;;;5396827;26;1968;-71
2024/04/12 06:23:06;;;;;;;;;;;19.20;67.20;;;;;;5395699;26;1715;-71
2024/04/12 06:25:38;;;;;;;;;;;19.20;67.20;;;;;;5403004;26;1729;-75
2024/04/12 06:28:11;;;;;;;;;;;19.20;67.20;;;;;;5397296;26;1989;-74
2024/04/12 06:30:46;;;;;;;;;;;19.20;67.20;;;;;;5398045;26;2217;-74
2024/04/12 06:33:12;;;;;;;;;;;19.20;67.20;;;;;;5398294;26;2419;-74
2024/04/12 06:35:39;;;;;;;;;;;19.20;67.20;;;;;;5398778;26;2412;-74
2024/04/12 06:38:08;;;;;;;;;;;19.20;67.30;;;;;;5404007;26;1818;-73
2024/04/12 06:40:34;;;;;;;;;;;19.20;67.30;;;;;;5393320;26;1869;-73
2024/04/12 06:43:05;;;;;;;;;;;19.20;67.30;;;;;;5395385;26;1925;-74
2024/04/12 06:45:33;;;;;;;;;;;19.20;67.30;;;;;;5394285;26;1770;-74
2024/04/12 06:48:03;;;;;;;;;;;19.20;67.30;;;;;;5396747;26;1658;-74
2024/04/12 06:50:29;;;;;;;;;;;19.20;67.40;;;;;;5407042;26;1949;-73
2024/04/12 06:52:55;;;;;;;;;;;19.20;67.40;;;;;;5396187;26;1632;-73
2024/04/12 06:55:30;;;;;;;;;;;19.20;67.40;;;;;;5398182;26;1952;-74
2024/04/12 06:57:55;;;;;;;;;;;19.20;67.40;;;;;;5391271;26;2110;-74
2024/04/12 07:00:29;;;;;;;;;;;19.20;67.40;;;;;;5399589;26;1945;-74
2024/04/12 07:02:59;;;;;;;;;;;19.20;67.50;;;;;;5401207;26;1867;-72
2024/04/12 07:05:27;;;;;;;;;;;19.20;67.50;;;;;;5393686;26;1602;-72
2024/04/12 07:07:52;;;;;;;;;;;19.20;67.50;;;;;;5392876;26;1470;-72
2024/04/12 07:10:20;;;;;;;;;;;19.20;67.50;;;;;;5398399;26;1442;-72
2024/04/12 07:12:46;;;;;;;;;;;19.20;67.50;;;;;;5392719;26;1839;-72
2024/04/12 07:15:12;;;;;;;;;;;19.20;67.50;;;;;;5408330;26;1355;-72
2024/04/12 07:17:41;;;;;;;;;;;19.20;67.50;;;;;;5395563;26;1928;-72
2024/04/12 07:20:13;;;;;;;;;;;19.10;67.50;;;;;;5390623;26;2055;-72
2024/04/12 07:22:39;;;;;;;;;;;19.20;67.60;;;;;;5398523;26;1966;-72
2024/04/12 07:25:07;;;;;;;;;;;19.20;67.60;;;;;;5392824;26;1469;-70
2024/04/12 07:27:33;;;;;;;;;;;19.10;67.50;;;;;;5390316;26;1613;-71
2024/04/12 07:29:58;;;;;;;;;;;19.10;67.50;;;;;;5401380;26;1772;-71
2024/04/12 07:32:24;;;;;;;;;;;19.10;67.50;;;;;;5394244;26;1470;-72
2024/04/12 07:34:49;;;;;;;;;;;19.10;67.50;;;;;;5396318;26;1897;-72
2024/04/12 07:37:27;;;;;;;;;;;19.10;67.60;;;;;;5401417;26;1764;-72
2024/04/12 07:42:48;;;;;;;;;;;19.10;67.60;;;;;;5399223;26;1803;-72
2024/04/12 07:45:23;;;;;;;;;;;19.10;67.60;;;;;;5393951;26;1765;-73
2024/04/12 07:50:33;;;;;;;;;;;19.10;67.60;;;;;;5395071;26;1442;-71
2024/04/12 07:52:59;;;;;;;;;;;19.10;67.70;;;;;;5397294;26;1738;-71
2024/04/12 07:55:25;;;;;;;;;;;19.10;67.70;;;;;;5399901;26;1287;-71
2024/04/12 07:57:53;;;;;;;;;;;19.10;67.70;;;;;;5390226;26;1958;-71
2024/04/12 08:00:35;;;;;;;;;;;19.10;67.70;;;;;;5396110;26;1850;-72
2024/04/12 08:03:06;;;;;;;;;;;19.10;67.70;;;;;;5401559;26;1862;-72
2024/04/12 08:05:42;;;;;;;;;;;19.10;67.70;;;;;;5369714;26;1846;-71
2024/04/12 08:08:15;;;;;;;;;;;19.10;67.70;;;;;;5391595;26;1894;-71
2024/04/12 08:10:41;;;;;;;;;;;19.10;67.80;;;;;;5396997;26;1866;-71
2024/04/12 08:13:10;;;;;;;;;;;19.10;67.70;;;;;;5397402;26;1843;-72
2024/04/12 08:15:42;;;;;;;;;;;19.10;67.70;;;;;;5390509;26;1928;-71
2024/04/12 08:18:08;;;;;;;;;;;19.10;67.80;;;;;;5395516;26;1902;-72
2024/04/12 08:20:39;;;;;;;;;;;19.10;67.80;;;;;;5396373;26;1875;-71
2024/04/12 08:23:05;;;;;;;;;;;19.10;67.80;;;;;;5393703;26;1302;-71
2024/04/12 08:25:36;;;;;;;;;;;19.10;67.80;;;;;;5390636;26;1578;-71
2024/04/12 08:28:05;;;;;;;;;;;19.10;67.80;;;;;;5393600;26;1583;-71
2024/04/12 08:30:32;;;;;;;;;;;19.10;67.80;;;;;;5395946;26;1439;-71
2024/04/12 08:33:02;;;;;;;;;;;19.10;67.80;;;;;;5396266;26;1252;-71
2024/04/12 08:35:29;;;;;;;;;;;19.10;67.80;;;;;;5396315;26;1356;-72
2024/04/12 08:37:54;;;;;;;;;;;19.10;67.80;;;;;;5391493;26;1440;-72
2024/04/12 08:40:21;;;;;;;;;;;19.10;67.80;;;;;;5391275;26;1853;-71
2024/04/12 08:42:47;;;;;;;;;;;19.00;67.80;;;;;;5396359;26;2046;-71
2024/04/12 08:45:13;;;;;;;;;;;19.10;67.90;;;;;;5396425;26;1344;-72
2024/04/12 08:47:54;;;;;;;;;;;19.10;67.90;;;;;;5389790;26;1463;-72
2024/04/12 08:50:23;;;;;;;;;;;19.10;67.90;;;;;;5408033;26;1698;-71
2024/04/12 08:52:49;;;;;;;;;;;19.00;67.80;;;;;;5406865;26;1768;-72
2024/04/12 08:55:15;;;;;;;;;;;19.00;67.80;;;;;;5395759;26;1542;-72
2024/04/12 08:57:44;;;;;;;;;;;19.00;67.80;;;;;;5389614;26;1878;-72
2024/04/12 09:00:17;;;;;;;;;;;19.00;67.90;;;;;;5394321;26;2051;-71
2024/04/12 09:02:48;;;;;;;;;;;19.00;67.80;;;;;;5389067;26;1891;-72
2024/04/12 09:05:22;;;;;;;;;;;19.00;67.80;;;;;;5396867;26;2188;-73
2024/04/12 09:07:51;;;;;;;;;;;19.00;67.90;;;;;;5391399;26;1904;-72
2024/04/12 09:10:17;;;;;;;;;;;19.00;67.90;;;;;;5385559;26;1463;-73
2024/04/12 09:12:44;;;;;;;;;;;19.00;67.90;;;;;;5393687;26;2030;-73
2024/04/12 09:15:13;;;;;;;;;;;19.00;67.90;;;;;;5396756;26;1576;-72
2024/04/12 09:17:41;;;;;;;;;;;19.00;67.90;;;;;;5395557;26;1968;-71
2024/04/12 09:20:29;;;;;;;;;;;19.00;67.90;;;;;;5397363;26;1874;-72
2024/04/12 09:22:54;;;;;;;;;;;19.00;67.90;;;;;;5400655;26;1969;-73
2024/04/12 09:25:26;;;;;;;;;;;19.00;67.90;;;;;;5401462;26;1687;-72
2024/04/12 09:27:51;;;;;;;;;;;19.00;67.90;;;;;;5404652;26;1983;-72
2024/04/12 09:33:20;;;;;;;;;;;19.00;67.90;;;;;;5400748;26;2148;-73
2024/04/12 09:35:45;;;;;;;;;;;19.00;67.90;;;;;;5406339;26;1773;-73
2024/04/12 09:38:16;;;;;;;;;;;19.00;67.90;;;;;;5410005;26;1217;-74
2024/04/12 09:40:42;;;;;;;;;;;19.00;67.90;;;;;;5390598;26;1861;-74
2024/04/12 09:45:45;;;;;;;;;;;19.00;67.90;;;;;;5400159;26;1280;-74
2024/04/12 10:37:48;;;;;;;;;;;19.00;68.00;;;;;;5397691;26;1526;-73
2024/04/12 10:40:14;;;;;;;;;;;19.00;68.00;;;;;;5401006;26;1855;-74
2024/04/12 10:42:42;;;;;;;;;;;19.00;68.00;;;;;;5394779;26;2049;-74
2024/04/12 10:45:17;;;;;;;;;;;19.00;68.00;;;;;;5396666;26;1816;-73
2024/04/12 10:47:45;;;;;;;;;;;19.00;68.00;;;;;;5393112;26;1908;-73
2024/04/12 10:50:13;;;;;;;;;;;19.00;68.00;;;;;;5395055;26;1985;-72
2024/04/12 10:52:39;;;;;;;;;;;19.00;68.00;;;;;;5396046;26;1991;-72
2024/04/12 10:55:16;;;;;;;;;;;19.00;68.00;;;;;;5395815;26;2556;-71
2024/04/12 10:57:41;;;;;;;;;;;19.00;68.00;;;;;;5393446;26;1749;-73
2024/04/12 11:00:16;;;;;;;;;;;19.00;68.00;;;;;;5396228;26;1897;-72
2024/04/12 11:02:45;;;;;;;;;;;19.00;68.10;;;;;;5395319;26;2388;-72
2024/04/12 11:07:43;;;;;;;;;;;19.00;68.00;;;;;;5397121;26;1910;-72
2024/04/12 11:10:22;;;;;;;;;;;19.00;68.00;;;;;;5390422;26;1814;-72
2024/04/12 11:12:54;;;;;;;;;;;19.00;68.00;;;;;;5394785;26;1786;-72
2024/04/12 11:31:55;;;;;;;;;;;18.90;68.00;;;;;;5395901;26;1612;-71
2024/04/12 11:34:21;;;;;;;;;;;19.00;68.10;;;;;;5391351;26;1450;-72
2024/04/12 11:36:46;;;;;;;;;;;18.90;68.10;;;;;;5395389;26;1823;-72
2024/04/12 11:39:17;;;;;;;;;;;19.00;68.10;;;;;;5391150;26;1943;-71
2024/04/12 11:41:44;;;;;;;;;;;19.00;68.10;;;;;;5395084;26;1814;-72
2024/04/12 11:44:22;;;;;;;;;;;18.90;68.00;;;;;;5399258;26;1982;-73
2024/04/12 11:46:49;;;;;;;;;;;19.00;68.20;;;;;;5398958;26;1460;-73
2024/04/12 11:49:25;;;;;;;;;;;18.90;68.10;;;;;;5367044;26;1902;-74
2024/04/12 11:52:02;;;;;;;;;;;18.90;68.10;;;;;;5397912;26;1696;-71
2024/04/12 11:54:29;;;;;;;;;;;18.90;68.10;;;;;;5400858;26;1943;-73
2024/04/12 11:57:01;;;;;;;;;;;18.90;68.10;;;;;;5395009;26;1998;-73
2024/04/12 11:59:27;;;;;;;;;;;19.00;68.10;;;;;;5377281;26;2262;-74
2024/04/12 12:01:54;;;;;;;;;;;18.90;68.10;;;;;;5400802;26;1429;-73
2024/04/12 12:04:19;;;;;;;;;;;18.90;68.10;;;;;;5398948;26;1782;-72
2024/04/12 12:06:45;;;;;;;;;;;18.90;68.10;;;;;;5393982;26;1853;-74
2024/04/12 12:09:13;;;;;;;;;;;18.90;68.90;;;;;;5394652;26;1803;-73
2024/04/12 12:11:42;;;;;;;;;;;19.00;68.20;;;;;;5398398;26;1648;-73
2024/04/12 12:14:08;;;;;;;;;;;19.00;68.10;;;;;;5394743;26;1952;-74
2024/04/12 12:16:33;;;;;;;;;;;18.90;68.10;;;;;;5395512;26;1414;-76
2024/04/12 12:18:59;;;;;;;;;;;19.00;68.20;;;;;;5389731;26;1919;-74
2024/04/12 12:21:25;;;;;;;;;;;18.90;68.10;;;;;;5391750;26;1577;-74
2024/04/12 12:23:50;;;;;;;;;;;18.90;68.10;;;;;;5396946;26;1805;-74
2024/04/12 12:26:16;;;;;;;;;;;18.90;68.10;;;;;;5394374;26;1388;-73
2024/04/12 12:28:41;;;;;;;;;;;18.90;68.10;;;;;;5393842;26;1580;-73
2024/04/12 12:31:07;;;;;;;;;;;18.90;68.10;;;;;;5394038;26;1604;-73
2024/04/12 12:33:38;;;;;;;;;;;19.00;68.20;;;;;;5369281;26;2114;-74
2024/04/12 12:36:05;;;;;;;;;;;18.90;68.10;;;;;;5395732;26;1673;-73
2024/04/12 12:38:32;;;;;;;;;;;18.90;68.10;;;;;;5391176;26;1450;-73
2024/04/12 12:40:57;;;;;;;;;;;18.90;68.10;;;;;;5393734;26;1830;-74
2024/04/12 12:43:23;;;;;;;;;;;18.90;68.10;;;;;;5392756;26;1790;-74
2024/04/12 12:45:48;;;;;;;;;;;19.00;68.20;;;;;;5390483;26;1497;-74
2024/04/12 12:48:19;;;;;;;;;;;18.90;68.10;;;;;;5393502;26;1425;-74
2024/04/12 12:50:46;;;;;;;;;;;19.00;68.20;;;;;;5396828;26;1968;-74
2024/04/12 12:53:12;;;;;;;;;;;19.00;68.20;;;;;;5392560;26;2186;-74
2024/04/12 12:55:39;;;;;;;;;;;18.90;68.20;;;;;;5400800;26;1350;-74
2024/04/12 12:58:11;;;;;;;;;;;19.00;68.20;;;;;;5393813;26;1784;-73
2024/04/12 13:00:44;;;;;;;;;;;18.90;68.20;;;;;;5402858;26;1818;-73
2024/04/12 13:03:17;;;;;;;;;;;18.90;68.10;;;;;;5390877;26;2082;-73
2024/04/12 13:05:45;;;;;;;;;;;19.00;68.20;;;;;;5400044;26;1892;-72
2024/04/12 13:08:15;;;;;;;;;;;18.90;68.20;;;;;;5395071;26;1894;-74
2024/04/12 13:10:46;;;;;;;;;;;19.00;68.30;;;;;;5401046;26;1865;-74
2024/04/12 13:13:17;;;;;;;;;;;18.90;68.20;;;;;;5396274;26;1806;-72
2024/04/12 13:15:51;;;;;;;;;;;18.90;68.90;;;;;;5398735;26;1848;-73
2024/04/12 13:18:18;;;;;;;;;;;18.90;68.20;;;;;;5406022;26;1222;-73
2024/04/12 13:20:43;;;;;;;;;;;18.90;68.20;;;;;;5389931;26;1917;-73
2024/04/12 13:23:09;;;;;;;;;;;18.90;68.20;;;;;;5395071;26;1930;-72
2024/04/12 13:25:37;;;;;;;;;;;18.90;68.20;;;;;;5392934;26;1930;-72
2024/04/12 13:28:11;;;;;;;;;;;18.90;68.20;;;;;;5400572;26;2015;-72
2024/04/12 13:30:40;;;;;;;;;;;18.90;68.20;;;;;;5392589;26;1789;-72
2024/04/12 13:33:08;;;;;;;;;;;19.00;68.30;;;;;;5379383;26;2390;-72
2024/04/12 13:35:34;;;;;;;;;;;18.90;68.20;;;;;;5392093;26;2080;-73
2024/04/12 13:38:00;;;;;;;;;;;18.90;68.20;;;;;;5395402;26;1295;-72
2024/04/12 13:40:26;;;;;;;;;;;18.90;68.20;;;;;;5393495;26;1877;-74
2024/04/12 13:42:51;;;;;;;;;;;18.90;68.20;;;;;;5395781;26;1809;-72
2024/04/12 13:50:55;;;;;;;;;;;18.90;68.20;;;;;;5399345;26;1903;-74
2024/04/12 13:53:31;;;;;;;;;;;18.90;68.20;;;;;;5396981;26;1281;-73
2024/04/12 13:56:19;;;;;;;;;;;18.90;68.20;;;;;;5398148;26;1859;-73
2024/04/12 13:58:58;;;;;;;;;;;18.90;68.20;;;;;;5391541;26;1891;-74
2024/04/12 14:01:23;;;;;;;;;;;18.90;68.30;;;;;;5399420;26;1577;-72
2024/04/12 14:03:52;;;;;;;;;;;18.90;68.20;;;;;;5395306;26;1676;-70
2024/04/12 14:06:18;;;;;;;;;;;18.90;68.20;;;;;;5399672;26;1365;-70
2024/04/12 14:08:45;;;;;;;;;;;18.90;68.20;;;;;;5397309;26;1968;-71
2024/04/12 14:11:10;;;;;;;;;;;19.00;68.30;;;;;;5397333;26;1908;-70
2024/04/12 14:13:36;;;;;;;;;;;18.90;68.20;;;;;;5396275;26;1401;-70
2024/04/12 14:16:01;;;;;;;;;;;18.90;68.30;;;;;;5397753;26;1829;-70
2024/04/12 14:18:29;;;;;;;;;;;18.90;68.20;;;;;;5394160;26;1930;-70
2024/04/12 14:20:57;;;;;;;;;;;19.00;68.30;;;;;;5397186;26;1834;-70
2024/04/12 14:23:24;;;;;;;;;;;18.90;68.30;;;;;;5394414;26;2263;-70
2024/04/12 14:25:50;;;;;;;;;;;18.90;68.30;;;;;;5402466;26;2046;-71
2024/04/12 14:28:15;;;;;;;;;;;18.90;68.20;;;;;;5396800;26;1393;-70
2024/04/12 14:30:41;;;;;;;;;;;19.00;68.30;;;;;;5397482;26;1792;-71
2024/04/12 14:33:07;;;;;;;;;;;18.90;68.30;;;;;;5392920;26;1891;-70
2024/04/12 14:35:38;;;;;;;;;;;19.00;68.30;;;;;;5391944;26;1848;-71
2024/04/12 14:38:05;;;;;;;;;;;18.90;68.20;;;;;;5401983;26;1902;-71
2024/04/12 14:40:34;;;;;;;;;;;18.90;68.20;;;;;;5399903;26;1867;-72
2024/04/12 14:43:01;;;;;;;;;;;18.90;68.30;;;;;;5399287;26;1649;-71
2024/04/12 14:45:26;;;;;;;;;;;18.90;68.30;;;;;;5391639;26;1648;-71
2024/04/12 14:47:52;;;;;;;;;;;18.90;68.30;;;;;;5390080;26;1582;-71
2024/04/12 14:50:17;;;;;;;;;;;18.90;68.30;;;;;;5399548;26;1891;-71
2024/04/12 14:52:46;;;;;;;;;;;18.90;68.30;;;;;;5408459;26;1926;-71
2024/04/12 14:55:12;;;;;;;;;;;18.90;68.30;;;;;;5390286;26;1743;-71
2024/04/12 14:57:49;;;;;;;;;;;18.90;68.30;;;;;;5396538;26;1889;-71
2024/04/12 15:00:19;;;;;;;;;;;18.90;68.30;;;;;;5400272;26;1914;-71
2024/04/12 15:49:07;;;;;;;;;;;18.90;68.40;;;;;;5387441;26;1459;-71
2024/04/12 15:51:33;;;;;;;;;;;18.90;68.40;;;;;;5394461;26;1797;-72
2024/04/12 15:54:00;;;;;;;;;;;18.90;68.40;;;;;;5398057;26;2006;-70
2024/04/12 16:12:33;;;;;;;;;;;18.90;68.30;;;;;;5397611;26;1360;-71
2024/04/12 16:14:59;;;;;;;;;;;18.90;68.40;;;;;;5398057;26;1250;-71
2024/04/12 16:17:24;;;;;;;;;;;18.90;68.30;;;;;;5410550;26;1230;-71
2024/04/12 16:19:52;;;;;;;;;;;18.90;68.40;;;;;;5396400;26;1852;-70
2024/04/12 16:22:17;;;;;;;;;;;18.90;68.30;;;;;;5392919;26;1833;-71
2024/04/12 16:24:43;;;;;;;;;;;18.90;68.30;;;;;;5388941;26;1675;-71
2024/04/12 16:27:09;;;;;;;;;;;18.90;68.40;;;;;;5394090;26;1324;-71
2024/04/12 16:29:38;;;;;;;;;;;18.90;68.40;;;;;;5403071;26;1475;-71
2024/04/12 16:32:03;;;;;;;;;;;18.90;68.40;;;;;;5397133;26;1531;-70
2024/04/12 16:34:29;;;;;;;;;;;18.90;68.40;;;;;;5376317;26;1854;-70
2024/04/12 16:36:55;;;;;;;;;;;18.90;68.40;;;;;;5396557;26;1551;-70
2024/04/12 16:39:20;;;;;;;;;;;18.90;68.40;;;;;;5398818;26;1830;-70
2024/04/12 16:41:49;;;;;;;;;;;18.90;68.40;;;;;;5397372;26;993;-70
2024/04/12 16:44:14;;;;;;;;;;;18.90;68.40;;;;;;5402960;26;1749;-70
2024/04/12 16:46:43;;;;;;;;;;;18.90;68.30;;;;;;5370457;26;1791;-70
2024/04/12 16:49:08;;;;;;;;;;;18.90;68.40;;;;;;5392422;26;894;-70
2024/04/12 16:51:34;;;;;;;;;;;18.90;68.40;;;;;;5399063;26;1786;-70
2024/04/12 16:54:00;;;;;;;;;;;18.90;68.30;;;;;;5394750;26;1390;-70
2024/04/12 16:56:28;;;;;;;;;;;18.90;69.10;;;;;;5404743;26;1363;-70
2024/04/12 16:58:56;;;;;;;;;;;18.90;68.40;;;;;;5399186;26;1868;-71
2024/04/12 17:01:22;;;;;;;;;;;18.90;68.40;;;;;;5391131;26;1921;-73
2024/04/12 17:03:48;;;;;;;;;;;18.90;68.40;;;;;;5397226;26;1845;-73
2024/04/12 17:06:13;;;;;;;;;;;18.90;68.40;;;;;;5389833;26;1872;-73
2024/04/12 17:08:39;;;;;;;;;;;18.90;68.40;;;;;;5393555;26;1511;-74